Time;durP1;ratioP1;P1;durP2;ratioP2;P2;SDS_P1;SDS_P2;PMS_P1;PMS_P2;Temp;Humidity;BMP_temperature;BMP_pressure;BME280_temperature;BME280_humidity;BME280_pressure;Samples;Min_cycle;Max_cycle;Signal;HPM_P1;HPM_P2
2023/05/24 00:02:05;;;;;;;2.30;2.10;;;;;;;17.93;61.05;96803.19;10453763;28;20028;-28
2023/05/24 00:07:08;;;;;;;2.67;2.47;;;;;;;17.93;61.03;96797.31;10463394;28;20368;-28
2023/05/24 00:12:09;;;;;;;3.72;3.42;;;;;;;18.09;63.28;96802.41;10461056;28;20051;-28
2023/05/24 00:17:11;;;;;;;4.55;4.07;;;;;;;18.23;66.39;96800.75;10453972;28;20055;-28
2023/05/24 00:22:12;;;;;;;2.80;2.60;;;;;;;18.17;63.42;96792.31;10461155;28;20513;-28
2023/05/24 00:27:14;;;;;;;2.50;2.30;;;;;;;18.06;62.25;96799.88;10457460;28;20029;-27
2023/05/24 00:32:14;;;;;;;2.40;2.20;;;;;;;18.02;61.40;96804.94;10460523;28;20032;-28
2023/05/24 00:37:15;;;;;;;2.30;2.13;;;;;;;17.97;61.30;96806.59;10460558;28;20464;-28
2023/05/24 00:42:16;;;;;;;2.47;2.28;;;;;;;17.95;61.33;96809.16;10456299;28;20036;-27
2023/05/24 00:47:16;;;;;;;2.27;2.00;;;;;;;17.94;61.35;96811.66;10444820;28;20033;-28
2023/05/24 00:52:20;;;;;;;2.50;2.30;;;;;;;17.93;61.19;96813.34;10450110;28;20283;-28
2023/05/24 00:57:23;;;;;;;2.50;2.30;;;;;;;17.93;61.11;96815.03;10449357;28;20482;-28
2023/05/24 01:02:26;;;;;;;2.45;2.25;;;;;;;17.93;60.87;96820.09;10449172;28;20099;-27
2023/05/24 01:07:40;;;;;;;2.40;2.20;;;;;;;17.91;60.93;96807.41;10471338;28;20078;-28
2023/05/24 01:12:58;;;;;;;1.90;1.80;;;;;;;17.91;60.80;96812.50;10464664;28;20069;-28
2023/05/24 01:18:10;;;;;;;2.67;2.47;;;;;;;18.10;62.98;96813.41;10471181;28;20028;-27
2023/05/24 01:23:27;;;;;;;4.00;3.60;;;;;;;18.23;65.08;96815.13;10453383;28;20036;-28
2023/05/24 01:28:30;;;;;;;2.42;2.22;;;;;;;18.18;63.50;96817.63;10445715;28;20032;-27
2023/05/24 01:33:31;;;;;;;2.17;2.08;;;;;;;18.06;62.15;96811.69;10455735;28;20041;-28
2023/05/24 01:38:31;;;;;;;2.10;2.00;;;;;;;17.99;61.17;96807.47;10468868;28;20060;-27
2023/05/24 01:43:38;;;;;;;3.27;2.47;;;;;;;17.95;61.23;96796.47;10463492;28;20571;-28
2023/05/24 01:49:01;;;;;;;2.28;2.10;;;;;;;17.95;61.01;96810.81;10455282;28;20271;-28
2023/05/24 01:54:05;;;;;;;2.10;1.90;;;;;;;17.93;61.07;96809.97;10463880;28;20034;-28
2023/05/24 01:59:07;;;;;;;2.60;2.40;;;;;;;17.92;60.86;96808.28;10460856;28;20036;-27
2023/05/24 02:04:09;;;;;;;2.20;1.92;;;;;;;17.90;60.99;96815.03;10436658;28;20144;-27
2023/05/24 02:09:09;;;;;;;2.40;2.20;;;;;;;17.90;60.71;96804.91;10437059;28;20120;-28
2023/05/24 02:14:10;;;;;;;2.00;1.90;;;;;;;17.91;60.75;96811.66;10460919;28;20489;-27
2023/05/24 02:19:10;;;;;;;2.17;1.83;;;;;;;17.89;60.65;96809.13;10444029;28;20041;-27
2023/05/24 02:24:11;;;;;;;2.77;2.57;;;;;;;18.13;63.09;96798.19;10458098;28;20035;-27
2023/05/24 02:29:11;;;;;;;2.65;2.45;;;;;;;18.20;63.43;96790.63;10456626;28;20029;-28
2023/05/24 02:34:12;;;;;;;2.53;2.33;;;;;;;18.11;63.14;96784.69;10442672;28;20033;-28
2023/05/24 02:39:12;;;;;;;2.40;2.20;;;;;;;18.02;62.00;96789.72;10451817;28;20353;-28
2023/05/24 02:44:13;;;;;;;2.50;2.30;;;;;;;17.90;60.92;96775.34;10459848;28;20029;-27
2023/05/24 02:49:13;;;;;;;2.27;2.07;;;;;;;17.90;61.05;96779.59;10453451;28;20025;-27
2023/05/24 02:54:16;;;;;;;3.27;2.20;;;;;;;17.91;60.89;96782.09;10433797;28;20512;-27
2023/05/24 02:59:17;;;;;;;2.00;1.90;;;;;;;17.91;60.56;96771.97;10441260;28;20814;-28
2023/05/24 03:04:18;;;;;;;2.45;2.20;;;;;;;17.95;60.84;96768.63;10445411;28;20089;-28
2023/05/24 03:09:18;;;;;;;2.72;2.30;;;;;;;17.98;60.16;96758.47;10445342;28;20037;-27
2023/05/24 03:14:21;;;;;;;2.00;1.90;;;;;;;17.97;60.56;96751.72;10449192;28;20029;-27
2023/05/24 03:19:21;;;;;;;2.10;1.90;;;;;;;18.01;59.86;96760.19;10433723;28;20036;-27
2023/05/24 03:24:22;;;;;;;2.27;2.07;;;;;;;18.04;62.07;96761.03;10459895;28;20063;-28
2023/05/24 03:29:23;;;;;;;4.95;4.55;;;;;;;18.20;67.99;96759.38;10440423;28;20856;-28
2023/05/24 03:34:24;;;;;;;2.72;2.53;;;;;;;18.21;64.25;96761.06;10443717;28;20063;-28
2023/05/24 03:39:25;;;;;;;1.95;1.85;;;;;;;18.16;60.33;96770.34;10452089;28;20029;-28
2023/05/24 03:44:38;;;;;;;1.90;1.80;;;;;;;18.10;60.17;96776.25;10451273;28;20040;-27
2023/05/24 03:49:40;;;;;;;2.28;2.08;;;;;;;18.07;60.35;96788.91;10433903;28;20024;-28
2023/05/24 03:54:44;;;;;;;2.28;2.05;;;;;;;18.04;60.96;96793.97;10450061;28;20506;-28
2023/05/24 03:59:45;;;;;;;3.13;2.03;;;;;;;18.06;60.08;96801.56;10447550;28;20056;-27
2023/05/24 04:04:45;;;;;;;1.90;1.73;;;;;;;18.03;60.23;96801.56;10451465;28;20033;-28
2023/05/24 04:09:46;;;;;;;2.15;2.00;;;;;;;17.92;60.23;96790.56;10431381;28;20040;-28
2023/05/24 04:14:47;;;;;;;2.00;1.87;;;;;;;18.03;60.27;96804.09;10441110;28;20488;-29
2023/05/24 04:19:47;;;;;;;1.87;1.77;;;;;;;18.04;60.23;96808.31;10438647;28;20410;-28
2023/05/24 04:24:48;;;;;;;2.37;2.00;;;;;;;18.03;60.25;96804.94;10459471;28;20453;-28
2023/05/24 04:29:48;;;;;;;2.90;2.70;;;;;;;18.16;62.59;96803.28;10455310;28;20404;-29
2023/05/24 04:34:51;;;;;;;4.82;4.15;;;;;;;18.26;64.48;96805.00;10442933;28;20556;-28
2023/05/24 04:39:51;;;;;;;4.82;3.70;;;;;;;18.25;63.78;96818.53;10439429;28;20052;-28
2023/05/24 04:44:52;;;;;;;5.57;4.03;;;;;;;18.17;61.34;96817.66;10479605;28;20044;-28
2023/05/24 04:49:53;;;;;;;3.33;3.00;;;;;;;18.12;60.78;96820.19;10473510;28;20048;-28
2023/05/24 04:54:54;;;;;;;3.70;2.60;;;;;;;18.09;60.62;96806.66;10452444;28;20434;-28
2023/05/24 04:59:54;;;;;;;7.82;2.28;;;;;;;18.05;60.57;96810.00;10464827;28;20393;-28
2023/05/24 05:04:55;;;;;;;2.95;2.65;;;;;;;17.99;60.36;96803.22;10448596;28;20033;-28
2023/05/24 05:09:55;;;;;;;2.55;2.33;;;;;;;18.03;60.21;96806.63;10464928;28;20108;-28
2023/05/24 05:14:56;;;;;;;3.80;2.33;;;;;;;18.02;60.55;96810.00;10455971;28;20025;-28
2023/05/24 05:19:56;;;;;;;2.50;2.20;;;;;;;18.01;60.23;96800.72;10460637;28;20287;-28
2023/05/24 05:24:57;;;;;;;2.03;1.83;;;;;;;18.01;60.28;96805.78;10462573;28;20295;-28
2023/05/24 05:29:57;;;;;;;8.13;4.00;;;;;;;18.01;62.81;96809.13;10479025;28;20435;-28
2023/05/24 05:34:57;;;;;;;9.53;3.47;;;;;;;17.98;62.99;96808.31;10472376;28;20359;-28
2023/05/24 05:39:58;;;;;;;5.57;4.30;;;;;;;18.16;64.34;96810.91;10468044;28;20352;-28
2023/05/24 05:44:58;;;;;;;6.20;4.30;;;;;;;18.13;63.03;96804.13;10462346;28;20283;-28
2023/05/24 05:49:58;;;;;;;4.80;3.07;;;;;;;18.08;60.30;96805.78;10475040;28;20059;-28
2023/05/24 05:54:59;;;;;;;6.67;2.40;;;;;;;17.99;60.62;96798.16;10456347;28;20313;-28
2023/05/24 06:00:00;;;;;;;4.20;2.60;;;;;;;17.99;60.29;96804.94;10461675;28;20187;-28
2023/05/24 06:05:01;;;;;;;8.77;3.00;;;;;;;18.01;60.23;96815.91;10466841;28;20040;-29
2023/05/24 06:10:02;;;;;;;2.65;2.42;;;;;;;18.01;60.56;96818.44;10464214;28;20037;-28
2023/05/24 06:15:05;;;;;;;3.55;2.85;;;;;;;17.99;60.31;96815.06;10469137;28;20033;-28
2023/05/24 06:20:07;;;;;;;3.83;2.28;;;;;;;17.96;60.03;96820.09;10456432;28;20480;-28
2023/05/24 06:25:08;;;;;;;3.97;2.40;;;;;;;17.99;60.48;96815.91;10456135;28;20076;-28
2023/05/24 06:30:09;;;;;;;3.58;2.40;;;;;;;17.99;60.33;96822.66;10468249;28;20091;-29
2023/05/24 06:35:10;;;;;;;2.97;2.40;;;;;;;17.98;60.42;96823.50;10465765;28;20032;-28
2023/05/24 06:40:11;;;;;;;3.72;3.10;;;;;;;18.10;63.67;96826.06;10455763;28;20522;-28
2023/05/24 06:45:14;;;;;;;5.25;3.65;;;;;;;18.23;67.71;96838.78;10458703;28;20124;-29
2023/05/24 06:50:15;;;;;;;3.47;2.90;;;;;;;18.20;64.23;96836.25;10438587;28;20086;-28
2023/05/24 06:55:16;;;;;;;3.72;2.60;;;;;;;18.12;61.20;96837.06;10460927;28;20472;-28
2023/05/24 07:00:16;;;;;;;3.10;2.30;;;;;;;18.07;60.57;96843.81;10474030;28;20032;-28
2023/05/24 07:05:17;;;;;;;2.38;2.17;;;;;;;18.03;61.00;96852.22;10459999;28;20029;-28
2023/05/24 07:10:18;;;;;;;2.55;2.35;;;;;;;18.00;60.70;96847.16;10455789;28;20032;-29
2023/05/24 07:15:18;;;;;;;2.17;1.98;;;;;;;18.00;60.55;96852.22;10456576;28;20029;-28
2023/05/24 07:20:19;;;;;;;3.30;2.23;;;;;;;17.98;60.83;96847.13;10456040;28;20405;-28
2023/05/24 07:25:19;;;;;;;3.00;2.10;;;;;;;17.98;60.58;96846.31;10462522;28;20032;-28
2023/05/24 07:30:20;;;;;;;2.75;2.53;;;;;;;17.97;60.54;96847.97;10456479;28;20405;-28
2023/05/24 07:35:21;;;;;;;2.33;2.03;;;;;;;17.93;60.54;96845.44;10458677;28;20366;-28
2023/05/24 07:40:22;;;;;;;2.45;2.13;;;;;;;17.94;60.38;96853.03;10450928;28;20044;-28
2023/05/24 07:45:22;;;;;;;4.53;2.95;;;;;;;18.12;63.36;96864.91;10451031;28;20068;-29
2023/05/24 07:50:23;;;;;;;3.43;3.13;;;;;;;18.24;66.93;96870.06;10455206;28;20045;-28
2023/05/24 07:55:23;;;;;;;3.08;2.50;;;;;;;18.22;63.59;96861.56;10451110;28;20852;-28
2023/05/24 08:00:24;;;;;;;3.08;2.78;;;;;;;18.14;61.37;96870.84;10450458;28;20362;-28
2023/05/24 08:05:24;;;;;;;2.95;2.17;;;;;;;18.02;60.97;96860.66;10460791;28;20041;-28
2023/05/24 08:10:25;;;;;;;2.85;2.30;;;;;;;18.02;60.89;96875.88;10469456;28;20040;-28
2023/05/24 08:15:25;;;;;;;2.33;1.95;;;;;;;18.01;60.87;96884.31;10453963;28;20033;-28
2023/05/24 08:20:26;;;;;;;3.03;2.73;;;;;;;18.01;60.77;96890.22;10459108;28;20094;-29
2023/05/24 08:25:26;;;;;;;1.80;1.70;;;;;;;17.98;60.84;96890.19;10466843;28;20404;-28
2023/05/24 08:30:29;;;;;;;1.90;1.80;;;;;;;18.00;60.82;96900.34;10461999;28;20501;-29
2023/05/24 08:35:29;;;;;;;2.33;2.13;;;;;;;17.97;60.69;96888.50;10457180;28;20033;-27
2023/05/24 08:40:30;;;;;;;2.28;2.08;;;;;;;17.97;60.64;96895.25;10454620;28;20063;-28
2023/05/24 08:45:33;;;;;;;2.37;1.90;;;;;;;17.93;60.37;96896.09;10449389;28;20394;-28
2023/05/24 08:50:34;;;;;;;2.75;2.55;;;;;;;18.12;63.58;96897.84;10458939;28;20039;-28
2023/05/24 08:55:35;;;;;;;3.58;3.00;;;;;;;18.24;67.16;96892.84;10466799;28;20041;-29
2023/05/24 09:00:35;;;;;;;2.33;2.13;;;;;;;18.23;63.69;96891.13;10460637;28;20044;-28
2023/05/24 09:05:39;;;;;;;2.47;2.27;;;;;;;18.10;61.41;96897.00;10459266;28;20048;-28
2023/05/24 09:10:40;;;;;;;1.88;1.75;;;;;;;18.05;60.65;96894.47;10472093;28;20040;-28
2023/05/24 09:15:40;;;;;;;1.83;1.73;;;;;;;17.98;60.57;96887.66;10458936;28;20497;-28
2023/05/24 09:20:40;;;;;;;2.43;2.23;;;;;;;18.00;60.93;96890.22;10463855;28;20568;-28
2023/05/24 09:25:43;;;;;;;2.10;1.90;;;;;;;17.99;60.82;96901.19;10456390;28;20344;-28
2023/05/24 09:30:55;;;;;;;1.70;1.60;;;;;;;17.98;60.66;96904.56;10462159;28;20171;-28
2023/05/24 09:36:00;;;;;;;1.88;1.77;;;;;;;17.97;60.27;96912.97;10458119;28;20053;-28
2023/05/24 09:41:02;;;;;;;1.77;1.67;;;;;;;17.96;60.57;96919.75;10471286;28;20039;-29
2023/05/24 09:46:03;;;;;;;1.95;1.85;;;;;;;17.96;60.65;96916.34;10455412;28;20072;-28
2023/05/24 09:51:04;;;;;;;2.17;1.90;;;;;;;17.97;60.60;96920.59;10464917;28;20066;-26
2023/05/24 09:56:08;;;;;;;1.98;1.85;;;;;;;18.14;63.11;96926.59;10481705;28;20035;-28
2023/05/24 10:01:17;;;;;;;2.45;2.25;;;;;;;18.25;67.84;96925.78;10454567;28;20045;-28
2023/05/24 10:06:18;;;;;;;2.97;2.00;;;;;;;18.20;63.73;96924.94;10468634;28;20062;-28
2023/05/24 10:11:19;;;;;;;2.58;2.33;;;;;;;18.10;61.77;96928.28;10454723;28;20029;-28
2023/05/24 10:16:20;;;;;;;1.95;1.85;;;;;;;18.02;61.14;96937.53;10454030;28;20534;-29
2023/05/24 10:21:23;;;;;;;2.15;1.83;;;;;;;17.96;60.70;96934.94;10454633;28;20060;-28
2023/05/24 10:26:26;;;;;;;2.47;2.28;;;;;;;18.00;60.89;96939.19;10463849;28;20041;-28
2023/05/24 10:31:37;;;;;;;2.65;1.92;;;;;;;17.94;60.54;96933.25;10453727;28;20033;-29
2023/05/24 10:36:39;;;;;;;6.40;2.10;;;;;;;17.94;61.67;96930.72;10462231;28;20028;-28
2023/05/24 10:41:40;;;;;;;3.63;1.80;;;;;;;17.97;60.82;96938.31;10455165;28;20112;-28
2023/05/24 10:47:10;;;;;;;2.38;2.17;;;;;;;17.96;61.20;96934.94;10457381;28;20047;-29
2023/05/24 10:52:11;;;;;;;2.75;1.80;;;;;;;17.93;60.63;96934.09;10490752;28;20127;-28
2023/05/24 10:57:11;;;;;;;5.10;2.00;;;;;;;17.96;60.49;96934.09;10471694;28;20025;-28
2023/05/24 11:02:13;;;;;;;23.17;4.65;;;;;;;18.19;66.32;96945.19;10486647;28;20582;-28
2023/05/24 11:07:15;;;;;;;13.45;5.50;;;;;;;18.21;64.81;96941.84;10456060;28;20044;-28
2023/05/24 11:12:17;;;;;;;6.88;2.83;;;;;;;18.17;62.66;96941.81;10467269;28;20029;-28
2023/05/24 11:17:22;;;;;;;12.75;4.10;;;;;;;18.04;61.15;96940.06;10484164;28;20404;-29
2023/05/24 11:22:24;;;;;;;3.30;2.05;;;;;;;18.02;60.91;96942.59;10490613;28;20036;-28
2023/05/24 11:27:24;;;;;;;2.33;2.13;;;;;;;17.98;60.72;96943.41;10467175;28;20114;-28
2023/05/24 11:32:25;;;;;;;2.97;2.00;;;;;;;17.89;60.63;96935.75;10459418;28;20837;-27
2023/05/24 11:37:26;;;;;;;6.88;2.60;;;;;;;17.95;60.67;96940.88;10469752;28;20136;-29
2023/05/24 11:42:27;;;;;;;5.23;1.70;;;;;;;17.96;60.65;96936.63;10463406;28;20037;-28
2023/05/24 11:47:28;;;;;;;6.00;1.70;;;;;;;17.92;60.37;96935.75;10456122;28;20033;-28
2023/05/24 11:52:28;;;;;;;2.73;2.20;;;;;;;17.91;60.35;96939.13;10462133;28;20037;-28
2023/05/24 11:57:40;;;;;;;2.40;2.00;;;;;;;17.93;60.55;96926.50;10458072;28;20287;-27
2023/05/24 12:02:41;;;;;;;4.55;2.20;;;;;;;17.94;60.56;96918.03;10459749;28;20078;-27
2023/05/24 12:07:47;;;;;;;6.20;2.92;;;;;;;18.10;63.08;96905.47;10464656;28;20087;-28
2023/05/24 12:12:48;;;;;;;11.07;3.35;;;;;;;18.24;62.87;96908.06;10459806;28;20560;-28
2023/05/24 12:17:52;;;;;;;6.22;3.10;;;;;;;18.17;61.90;96908.88;10452830;28;20036;-28
2023/05/24 12:22:54;;;;;;;7.68;1.98;;;;;;;18.03;60.79;96898.69;10434314;28;20467;-28
2023/05/24 12:27:55;;;;;;;5.95;2.05;;;;;;;17.99;60.65;96899.50;10451598;28;20040;-28
2023/05/24 12:32:56;;;;;;;3.90;2.20;;;;;;;17.99;60.63;96896.13;10445150;28;20048;-28
2023/05/24 12:37:59;;;;;;;4.53;1.92;;;;;;;17.97;60.60;96885.97;10469770;28;20449;-28
2023/05/24 12:43:02;;;;;;;5.93;2.00;;;;;;;17.95;60.53;96882.59;10448399;28;20558;-29
2023/05/24 12:48:03;;;;;;;5.78;2.53;;;;;;;17.94;60.52;96877.53;10445436;28;20033;-28
2023/05/24 12:53:04;;;;;;;4.00;2.05;;;;;;;17.92;60.07;96874.13;10466051;28;20029;-29
2023/05/24 12:58:06;;;;;;;2.60;1.90;;;;;;;17.91;60.42;96872.44;10445491;28;20040;-28
2023/05/24 13:03:07;;;;;;;4.03;2.20;;;;;;;17.90;60.18;96865.69;10454582;28;20036;-28
2023/05/24 13:08:08;;;;;;;7.10;2.33;;;;;;;18.01;61.78;96869.94;10457377;28;20086;-28
2023/05/24 13:13:08;;;;;;;10.50;3.17;;;;;;;18.19;65.57;96867.50;10468419;28;20031;-28
2023/05/24 13:18:09;;;;;;;9.97;3.77;;;;;;;18.22;63.37;96857.38;10446776;28;20029;-28
2023/05/24 13:23:09;;;;;;;4.73;2.53;;;;;;;18.13;62.34;96853.94;10444522;28;20368;-28
2023/05/24 13:28:09;;;;;;;4.83;2.43;;;;;;;18.00;60.53;96842.09;10451144;28;20029;-28
2023/05/24 13:33:10;;;;;;;4.70;2.03;;;;;;;17.98;60.50;96839.53;10456966;28;20511;-28
2023/05/24 13:38:11;;;;;;;6.77;2.13;;;;;;;17.95;60.98;96838.69;10460349;28;20283;-28
2023/05/24 13:43:11;;;;;;;8.57;3.03;;;;;;;17.95;60.23;96826.00;10470780;28;20032;-28
2023/05/24 13:48:12;;;;;;;5.13;2.20;;;;;;;17.95;60.17;96828.56;10471167;28;20036;-27
2023/05/24 13:53:13;;;;;;;4.38;1.80;;;;;;;17.94;60.23;96824.31;10462009;28;20421;-29
2023/05/24 13:58:14;;;;;;;6.22;1.90;;;;;;;17.92;60.28;96815.88;10474950;28;20021;-29
2023/05/24 14:03:14;;;;;;;9.07;3.47;;;;;;;17.98;61.99;96818.44;10461819;28;20062;-28
2023/05/24 14:08:15;;;;;;;7.53;2.03;;;;;;;17.97;60.48;96816.72;10470545;28;20036;-27
2023/05/24 14:13:15;;;;;;;5.17;2.63;;;;;;;18.06;62.12;96824.34;10465696;28;20675;-26
2023/05/24 14:18:16;;;;;;;10.90;3.63;;;;;;;18.22;66.45;96823.56;10469472;28;20286;-28
2023/05/24 14:23:16;;;;;;;7.60;2.93;;;;;;;18.23;64.22;96818.50;10461349;28;20036;-28
2023/05/24 14:28:18;;;;;;;5.70;2.95;;;;;;;18.15;62.87;96815.09;10464222;28;20109;-28
2023/05/24 14:33:19;;;;;;;6.82;2.28;;;;;;;18.07;61.15;96808.34;10453071;28;20516;-27
2023/05/24 14:38:19;;;;;;;6.38;2.45;;;;;;;18.04;60.90;96798.19;10454449;28;20040;-28
2023/05/24 14:43:20;;;;;;;5.47;2.40;;;;;;;18.02;60.83;96799.88;10455656;28;20400;-29
2023/05/24 14:48:20;;;;;;;10.25;3.17;;;;;;;18.01;61.11;96800.72;10454431;28;20443;-28
2023/05/24 14:53:20;;;;;;;5.88;2.15;;;;;;;18.00;61.01;96789.72;10462816;28;20730;-28
2023/05/24 14:58:21;;;;;;;5.60;2.67;;;;;;;17.99;61.07;96789.75;10458397;28;20373;-27
2023/05/24 15:03:24;;;;;;;11.63;3.50;;;;;;;18.04;62.81;96788.91;10467427;28;20035;-27
2023/05/24 15:08:24;;;;;;;8.20;3.30;;;;;;;18.03;62.71;96788.88;10460360;28;20040;-28
2023/05/24 15:13:27;;;;;;;23.17;4.20;;;;;;;18.03;62.02;96787.22;10473109;28;20463;-28
2023/05/24 15:18:30;;;;;;;7.07;3.20;;;;;;;18.17;63.55;96779.66;10451899;28;20111;-28
2023/05/24 15:23:30;;;;;;;10.55;4.57;;;;;;;18.26;66.57;96779.66;10460249;28;20091;-27
2023/05/24 15:28:31;;;;;;;11.60;4.65;;;;;;;18.30;64.39;96776.31;10458099;28;20094;-27
2023/05/24 15:33:31;;;;;;;8.17;3.00;;;;;;;18.22;63.14;96768.66;10451076;28;20036;-28
2023/05/24 15:38:32;;;;;;;6.50;2.80;;;;;;;18.13;61.77;96767.78;10451285;28;20040;-27
2023/05/24 15:43:33;;;;;;;6.45;3.38;;;;;;;18.06;61.33;96772.00;10451176;28;20124;-27
2023/05/24 15:48:33;;;;;;;9.07;2.87;;;;;;;18.06;61.52;96766.09;10450559;28;20033;-27
2023/05/24 15:53:33;;;;;;;7.20;3.50;;;;;;;18.04;61.50;96765.25;10464221;28;20044;-27
2023/05/24 15:58:34;;;;;;;6.50;2.63;;;;;;;18.04;61.28;96767.78;10462335;28;20036;-27
2023/05/24 16:03:36;;;;;;;7.38;2.33;;;;;;;18.04;61.41;96762.72;10462018;28;20299;-27
2023/05/24 16:08:36;;;;;;;4.35;2.22;;;;;;;18.03;61.44;96763.56;10450121;28;20043;-27
2023/05/24 16:13:37;;;;;;;5.30;2.30;;;;;;;18.04;61.03;96762.72;10467601;28;20671;-27
2023/05/24 16:18:37;;;;;;;5.03;2.60;;;;;;;18.02;61.01;96766.94;10449333;28;20656;-28
2023/05/24 16:23:37;;;;;;;7.77;3.13;;;;;;;18.11;61.74;96769.50;10458949;28;20515;-27
2023/05/24 16:28:38;;;;;;;13.17;3.33;;;;;;;18.28;59.43;96763.63;10460901;28;20299;-27
2023/05/24 16:33:38;;;;;;;16.63;4.10;;;;;;;18.30;61.93;96763.63;10447040;28;20041;-27
2023/05/24 16:38:39;;;;;;;8.20;3.30;;;;;;;18.15;60.86;96743.31;10456204;28;20033;-27
2023/05/24 16:43:39;;;;;;;13.60;3.33;;;;;;;18.11;61.13;96751.75;10466922;28;20086;-28
2023/05/24 16:48:42;;;;;;;9.97;5.13;;;;;;;18.08;60.64;96759.34;10450982;28;20644;-27
2023/05/24 16:53:42;;;;;;;11.52;6.10;;;;;;;18.04;60.52;96755.09;10452773;28;20473;-28
2023/05/24 16:58:42;;;;;;;8.83;4.47;;;;;;;18.05;60.85;96754.25;10448300;28;20033;-28
2023/05/24 17:03:43;;;;;;;7.30;3.90;;;;;;;18.04;60.86;96760.19;10463314;28;20029;-28
2023/05/24 17:08:43;;;;;;;7.10;3.80;;;;;;;18.02;60.71;96751.72;10453714;28;20037;-27
2023/05/24 17:13:44;;;;;;;9.23;4.20;;;;;;;18.00;60.45;96755.97;10471072;28;20024;-28
2023/05/24 17:18:45;;;;;;;8.82;4.13;;;;;;;18.00;60.14;96761.03;10471945;28;20048;-27
2023/05/24 17:23:45;;;;;;;9.00;3.77;;;;;;;18.00;61.79;96768.63;10461233;28;20082;-28
2023/05/24 17:28:45;;;;;;;9.90;3.33;;;;;;;18.11;62.28;96769.50;10479685;28;20295;-28
2023/05/24 17:33:46;;;;;;;8.13;4.68;;;;;;;18.25;64.79;96773.72;10480250;28;20036;-28
2023/05/24 17:38:46;;;;;;;6.10;3.43;;;;;;;18.27;61.49;96783.88;10466807;28;20037;-28
2023/05/24 17:43:46;;;;;;;5.07;3.30;;;;;;;18.21;60.05;96773.72;10481886;28;20033;-28
2023/05/24 17:48:47;;;;;;;6.63;3.70;;;;;;;18.18;60.05;96779.63;10484666;28;20044;-28
2023/05/24 17:53:47;;;;;;;5.83;3.53;;;;;;;18.19;59.93;96790.63;10469514;28;20034;-28
2023/05/24 17:58:48;;;;;;;4.17;2.67;;;;;;;18.15;60.04;96787.22;10481140;28;20094;-28
2023/05/24 18:03:49;;;;;;;8.48;3.33;;;;;;;18.19;59.94;96795.69;10471968;28;20550;-28
2023/05/24 18:08:49;;;;;;;5.20;2.67;;;;;;;18.18;60.07;96791.47;10466580;28;20033;-28
2023/05/24 18:13:50;;;;;;;5.43;2.50;;;;;;;18.17;60.01;96810.06;10460740;28;20045;-28
2023/05/24 18:18:50;;;;;;;5.88;3.10;;;;;;;18.18;60.95;96817.63;10464027;28;20029;-29
2023/05/24 18:23:51;;;;;;;4.97;2.75;;;;;;;18.09;60.93;96799.06;10463458;28;20557;-28
2023/05/24 18:28:51;;;;;;;14.10;3.07;;;;;;;18.15;60.60;96826.94;10464643;28;20036;-29
2023/05/24 18:33:52;;;;;;;5.03;2.55;;;;;;;18.20;64.05;96820.19;10474084;28;20119;-28
2023/05/24 18:38:52;;;;;;;5.95;3.05;;;;;;;18.32;65.18;96832.94;10461976;28;20025;-28
2023/05/24 18:43:52;;;;;;;9.07;2.30;;;;;;;18.33;61.41;96839.69;10447185;28;20032;-28
2023/05/24 18:48:53;;;;;;;5.93;2.60;;;;;;;18.30;61.68;96839.66;10449201;28;20307;-28
2023/05/24 18:53:54;;;;;;;3.58;1.90;;;;;;;18.26;61.07;96845.56;10466314;28;20123;-28
2023/05/24 18:58:57;;;;;;;6.05;2.90;;;;;;;18.23;60.96;96845.53;10461806;28;20036;-29
2023/05/24 19:03:57;;;;;;;5.32;2.30;;;;;;;18.18;60.64;96839.63;10464018;28;20041;-28
2023/05/24 19:09:01;;;;;;;4.87;1.80;;;;;;;18.19;60.91;96848.91;10468984;28;20101;-27
2023/05/24 19:14:01;;;;;;;2.75;2.13;;;;;;;18.16;60.94;96848.91;10459540;28;20041;-28
2023/05/24 19:19:02;;;;;;;11.00;2.83;;;;;;;18.27;65.09;96857.38;10455295;28;20408;-29
2023/05/24 19:24:03;;;;;;;7.35;2.83;;;;;;;18.34;65.73;96864.19;10458098;28;20108;-28
2023/05/24 19:29:03;;;;;;;2.83;2.05;;;;;;;18.31;62.95;96869.22;10447712;28;20032;-28
2023/05/24 19:34:03;;;;;;;4.47;1.90;;;;;;;18.22;61.21;96871.72;10451246;28;20051;-28
2023/05/24 19:39:04;;;;;;;6.07;1.90;;;;;;;18.17;60.89;96881.84;10463107;28;20480;-28
2023/05/24 19:44:04;;;;;;;4.17;2.00;;;;;;;18.15;61.03;96882.69;10472781;28;20032;-29
2023/05/24 19:49:04;;;;;;;3.50;1.57;;;;;;;18.12;61.02;96888.59;10467916;28;20064;-29
2023/05/24 19:54:07;;;;;;;3.63;2.00;;;;;;;18.11;60.86;96886.03;10471983;28;20435;-29
2023/05/24 19:59:08;;;;;;;4.15;2.05;;;;;;;18.09;60.72;96898.69;10465653;28;20052;-28
2023/05/24 20:04:11;;;;;;;3.43;1.73;;;;;;;18.05;60.83;96896.13;10462950;28;20154;-28
2023/05/24 20:09:17;;;;;;;3.78;1.73;;;;;;;18.08;60.98;96896.16;10459301;28;20279;-28
2023/05/24 20:14:17;;;;;;;3.70;1.80;;;;;;;18.07;60.86;96891.94;10461814;28;20240;-28
2023/05/24 20:19:20;;;;;;;3.83;2.37;;;;;;;18.22;63.58;96900.44;10448744;28;20778;-28
2023/05/24 20:24:20;;;;;;;6.05;2.92;;;;;;;18.26;68.25;96881.03;10462983;28;20564;-28
2023/05/24 20:29:23;;;;;;;2.97;2.20;;;;;;;18.22;62.85;96884.38;10478327;28;20029;-28
2023/05/24 20:34:23;;;;;;;3.28;1.75;;;;;;;18.13;60.98;96884.34;10461024;28;20408;-28
2023/05/24 20:39:24;;;;;;;2.93;1.93;;;;;;;18.10;60.91;96890.28;10457793;28;20040;-28
2023/05/24 20:44:25;;;;;;;3.35;1.73;;;;;;;18.08;60.83;96888.56;10464064;28;20041;-28
2023/05/24 20:49:25;;;;;;;2.47;1.80;;;;;;;18.05;60.88;96879.25;10486103;28;20033;-28
2023/05/24 20:54:26;;;;;;;2.13;1.30;;;;;;;18.05;60.84;96886.00;10458386;28;20032;-28
2023/05/24 20:59:26;;;;;;;3.53;1.58;;;;;;;18.04;60.66;96889.38;10462850;28;20287;-28
2023/05/24 21:04:26;;;;;;;2.67;1.40;;;;;;;18.04;60.55;96881.78;10460982;28;20436;-28
2023/05/24 21:09:27;;;;;;;2.57;1.53;;;;;;;18.02;60.55;96870.81;10455573;28;20104;-30
2023/05/24 21:14:29;;;;;;;2.00;1.70;;;;;;;18.00;60.46;96877.56;10461580;28;20021;-27
2023/05/24 21:19:30;;;;;;;4.57;1.92;;;;;;;18.15;65.80;96880.16;10461323;28;20032;-28
2023/05/24 21:24:30;;;;;;;5.22;2.53;;;;;;;18.27;67.12;96887.78;10472689;28;20037;-28
2023/05/24 21:29:30;;;;;;;2.93;1.80;;;;;;;18.25;64.10;96892.84;10462842;28;20037;-28
2023/05/24 21:34:31;;;;;;;2.27;1.30;;;;;;;18.14;60.98;96886.91;10459424;28;20043;-28
2023/05/24 21:39:31;;;;;;;2.67;1.33;;;;;;;18.07;60.98;96892.78;10456081;28;20279;-28
2023/05/24 21:44:32;;;;;;;1.63;1.00;;;;;;;18.03;60.56;96882.63;10470619;28;20043;-28
2023/05/24 21:49:32;;;;;;;1.67;1.40;;;;;;;18.03;60.50;96892.75;10470340;28;20475;-28
2023/05/24 21:54:32;;;;;;;2.53;1.80;;;;;;;18.03;60.44;96885.16;10455757;28;20035;-27
2023/05/24 21:59:33;;;;;;;1.47;1.30;;;;;;;18.00;60.59;96883.44;10486864;28;20028;-28
2023/05/24 22:04:33;;;;;;;1.80;1.40;;;;;;;18.01;60.24;96889.38;10483744;28;20061;-28
2023/05/24 22:09:34;;;;;;;2.30;2.10;;;;;;;18.01;60.37;96885.13;10471221;28;20263;-28
2023/05/24 22:14:34;;;;;;;1.95;1.20;;;;;;;17.98;60.32;96890.19;10469172;28;20287;-28
2023/05/24 22:19:37;;;;;;;2.57;1.30;;;;;;;18.06;61.89;96892.75;10454853;28;20029;-27
2023/05/24 22:24:37;;;;;;;4.00;2.22;;;;;;;18.22;66.81;96902.97;10458466;28;20029;-29
2023/05/24 22:29:38;;;;;;;2.47;1.57;;;;;;;18.27;66.65;96880.19;10467327;28;20308;-29
2023/05/24 22:34:38;;;;;;;3.22;1.42;;;;;;;18.18;63.15;96892.81;10453895;28;20036;-29
2023/05/24 22:39:39;;;;;;;2.95;1.38;;;;;;;18.09;61.04;96892.78;10469500;28;20043;-27
2023/05/24 22:44:39;;;;;;;2.03;1.42;;;;;;;18.05;60.88;96891.06;10459881;28;20483;-28
2023/05/24 22:49:40;;;;;;;1.53;1.30;;;;;;;18.03;60.64;96896.16;10462304;28;20048;-29
2023/05/24 22:54:41;;;;;;;1.92;1.42;;;;;;;18.02;60.46;96896.13;10453221;28;20651;-29
2023/05/24 22:59:41;;;;;;;1.80;1.30;;;;;;;17.96;60.43;96880.91;10461125;28;20481;-28
2023/05/24 23:04:45;;;;;;;1.83;1.40;;;;;;;17.98;60.40;96884.31;10456293;28;20028;-28
2023/05/24 23:09:45;;;;;;;1.50;1.02;;;;;;;17.98;60.44;96879.25;10452122;28;20040;-29
2023/05/24 23:14:45;;;;;;;1.03;0.93;;;;;;;17.97;60.03;96867.38;10467260;28;20037;-28
2023/05/24 23:19:48;;;;;;;1.38;1.27;;;;;;;17.95;60.09;96871.59;10468769;28;20116;-28